sensor_id;sensor_type;location;lat;lon;timestamp;P1;durP1;ratioP1;P2;durP2;ratioP2
47860;SDS011;33620;52.340;5.984;2023-08-21T00:01:39;12.35;;;3.72;;
47860;SDS011;33620;52.340;5.984;2023-08-21T00:04:04;12.30;;;3.65;;
47860;SDS011;33620;52.340;5.984;2023-08-21T00:06:31;12.88;;;3.63;;
47860;SDS011;33620;52.340;5.984;2023-08-21T00:08:56;6.30;;;2.90;;
47860;SDS011;33620;52.340;5.984;2023-08-21T00:11:22;12.20;;;3.60;;
47860;SDS011;33620;52.340;5.984;2023-08-21T00:13:47;7.93;;;3.35;;
47860;SDS011;33620;52.340;5.984;2023-08-21T00:16:14;8.00;;;3.35;;
47860;SDS011;33620;52.340;5.984;2023-08-21T00:18:41;11.27;;;3.25;;
47860;SDS011;33620;52.340;5.984;2023-08-21T00:21:06;9.07;;;3.40;;
47860;SDS011;33620;52.340;5.984;2023-08-21T00:23:31;8.88;;;3.45;;
47860;SDS011;33620;52.340;5.984;2023-08-21T00:25:57;11.43;;;3.35;;
47860;SDS011;33620;52.340;5.984;2023-08-21T00:28:22;8.32;;;3.10;;
47860;SDS011;33620;52.340;5.984;2023-08-21T00:30:48;11.82;;;3.15;;
47860;SDS011;33620;52.340;5.984;2023-08-21T00:33:13;8.95;;;3.08;;
47860;SDS011;33620;52.340;5.984;2023-08-21T00:35:39;12.50;;;3.88;;
47860;SDS011;33620;52.340;5.984;2023-08-21T00:38:04;9.50;;;3.67;;
47860;SDS011;33620;52.340;5.984;2023-08-21T00:40:30;12.50;;;3.17;;
47860;SDS011;33620;52.340;5.984;2023-08-21T00:42:56;8.30;;;3.30;;
47860;SDS011;33620;52.340;5.984;2023-08-21T00:45:21;10.13;;;3.22;;
47860;SDS011;33620;52.340;5.984;2023-08-21T00:47:46;10.57;;;3.90;;
47860;SDS011;33620;52.340;5.984;2023-08-21T00:50:12;15.23;;;3.47;;
47860;SDS011;33620;52.340;5.984;2023-08-21T00:52:40;6.55;;;3.10;;
47860;SDS011;33620;52.340;5.984;2023-08-21T00:55:09;8.85;;;3.42;;
47860;SDS011;33620;52.340;5.984;2023-08-21T00:57:35;13.48;;;4.25;;
47860;SDS011;33620;52.340;5.984;2023-08-21T01:00:01;6.80;;;3.35;;
47860;SDS011;33620;52.340;5.984;2023-08-21T01:02:29;7.40;;;3.15;;
47860;SDS011;33620;52.340;5.984;2023-08-21T01:04:54;8.77;;;3.15;;
47860;SDS011;33620;52.340;5.984;2023-08-21T01:07:19;8.20;;;3.30;;
47860;SDS011;33620;52.340;5.984;2023-08-21T01:14:48;11.07;;;3.38;;
47860;SDS011;33620;52.340;5.984;2023-08-21T01:17:23;7.20;;;3.38;;
47860;SDS011;33620;52.340;5.984;2023-08-21T01:19:49;8.15;;;3.05;;
47860;SDS011;33620;52.340;5.984;2023-08-21T01:22:15;5.43;;;2.80;;
47860;SDS011;33620;52.340;5.984;2023-08-21T01:24:40;7.03;;;2.85;;
47860;SDS011;33620;52.340;5.984;2023-08-21T01:27:06;7.38;;;3.13;;
47860;SDS011;33620;52.340;5.984;2023-08-21T01:29:32;9.80;;;2.83;;
47860;SDS011;33620;52.340;5.984;2023-08-21T01:34:32;7.10;;;2.70;;
47860;SDS011;33620;52.340;5.984;2023-08-21T01:37:02;9.30;;;2.83;;
47860;SDS011;33620;52.340;5.984;2023-08-21T01:39:28;7.75;;;2.63;;
47860;SDS011;33620;52.340;5.984;2023-08-21T01:41:54;5.93;;;2.55;;
47860;SDS011;33620;52.340;5.984;2023-08-21T01:44:21;6.63;;;2.60;;
47860;SDS011;33620;52.340;5.984;2023-08-21T01:46:46;6.20;;;2.47;;
47860;SDS011;33620;52.340;5.984;2023-08-21T01:49:11;6.20;;;2.75;;
47860;SDS011;33620;52.340;5.984;2023-08-21T01:51:37;6.70;;;2.70;;
47860;SDS011;33620;52.340;5.984;2023-08-21T01:54:03;7.57;;;2.75;;
47860;SDS011;33620;52.340;5.984;2023-08-21T01:56:28;9.93;;;3.17;;
47860;SDS011;33620;52.340;5.984;2023-08-21T01:58:53;10.10;;;3.35;;
47860;SDS011;33620;52.340;5.984;2023-08-21T02:01:19;5.82;;;2.40;;
47860;SDS011;33620;52.340;5.984;2023-08-21T02:03:44;8.23;;;2.60;;
47860;SDS011;33620;52.340;5.984;2023-08-21T02:06:10;7.18;;;2.45;;
47860;SDS011;33620;52.340;5.984;2023-08-21T02:08:36;7.00;;;2.90;;
47860;SDS011;33620;52.340;5.984;2023-08-21T02:11:02;7.43;;;2.75;;
47860;SDS011;33620;52.340;5.984;2023-08-21T02:13:27;8.93;;;2.58;;
47860;SDS011;33620;52.340;5.984;2023-08-21T02:15:53;9.50;;;2.72;;
47860;SDS011;33620;52.340;5.984;2023-08-21T02:18:18;4.88;;;2.55;;
47860;SDS011;33620;52.340;5.984;2023-08-21T02:20:44;6.70;;;2.50;;
47860;SDS011;33620;52.340;5.984;2023-08-21T02:23:09;8.85;;;3.15;;
47860;SDS011;33620;52.340;5.984;2023-08-21T02:25:35;10.63;;;3.20;;
47860;SDS011;33620;52.340;5.984;2023-08-21T02:28:00;10.82;;;2.92;;
47860;SDS011;33620;52.340;5.984;2023-08-21T02:30:27;6.75;;;2.63;;
47860;SDS011;33620;52.340;5.984;2023-08-21T02:32:53;9.60;;;2.75;;
47860;SDS011;33620;52.340;5.984;2023-08-21T02:35:22;7.30;;;2.80;;
47860;SDS011;33620;52.340;5.984;2023-08-21T02:37:47;7.50;;;2.50;;
47860;SDS011;33620;52.340;5.984;2023-08-21T02:40:13;9.07;;;3.08;;
47860;SDS011;33620;52.340;5.984;2023-08-21T02:42:38;7.65;;;2.80;;
47860;SDS011;33620;52.340;5.984;2023-08-21T02:45:04;7.68;;;2.80;;
47860;SDS011;33620;52.340;5.984;2023-08-21T02:47:34;8.60;;;3.10;;
47860;SDS011;33620;52.340;5.984;2023-08-21T02:50:03;7.28;;;2.90;;
47860;SDS011;33620;52.340;5.984;2023-08-21T02:52:30;9.30;;;3.00;;
47860;SDS011;33620;52.340;5.984;2023-08-21T02:54:56;6.22;;;2.33;;
47860;SDS011;33620;52.340;5.984;2023-08-21T02:57:21;7.20;;;2.70;;
47860;SDS011;33620;52.340;5.984;2023-08-21T02:59:47;9.68;;;2.80;;
47860;SDS011;33620;52.340;5.984;2023-08-21T03:02:13;6.90;;;2.60;;
47860;SDS011;33620;52.340;5.984;2023-08-21T03:04:38;6.78;;;2.38;;
47860;SDS011;33620;52.340;5.984;2023-08-21T03:07:04;5.47;;;2.67;;
47860;SDS011;33620;52.340;5.984;2023-08-21T03:09:29;6.18;;;3.20;;
47860;SDS011;33620;52.340;5.984;2023-08-21T03:11:54;7.70;;;2.50;;
47860;SDS011;33620;52.340;5.984;2023-08-21T03:14:20;5.38;;;2.53;;
47860;SDS011;33620;52.340;5.984;2023-08-21T03:16:45;5.13;;;2.55;;
47860;SDS011;33620;52.340;5.984;2023-08-21T03:19:11;7.38;;;2.95;;
47860;SDS011;33620;52.340;5.984;2023-08-21T03:21:36;6.50;;;2.83;;
47860;SDS011;33620;52.340;5.984;2023-08-21T03:24:01;7.38;;;2.78;;
47860;SDS011;33620;52.340;5.984;2023-08-21T03:26:27;7.15;;;2.72;;
47860;SDS011;33620;52.340;5.984;2023-08-21T03:28:52;6.40;;;2.55;;
47860;SDS011;33620;52.340;5.984;2023-08-21T03:31:18;7.65;;;2.92;;
47860;SDS011;33620;52.340;5.984;2023-08-21T03:33:43;9.55;;;2.65;;
47860;SDS011;33620;52.340;5.984;2023-08-21T03:36:08;13.50;;;3.30;;
47860;SDS011;33620;52.340;5.984;2023-08-21T03:38:34;6.13;;;3.03;;
47860;SDS011;33620;52.340;5.984;2023-08-21T03:41:00;8.18;;;3.10;;
47860;SDS011;33620;52.340;5.984;2023-08-21T03:43:25;10.05;;;3.30;;
47860;SDS011;33620;52.340;5.984;2023-08-21T03:45:51;7.20;;;2.70;;
47860;SDS011;33620;52.340;5.984;2023-08-21T03:48:16;5.97;;;2.70;;
47860;SDS011;33620;52.340;5.984;2023-08-21T03:50:42;5.03;;;2.90;;
47860;SDS011;33620;52.340;5.984;2023-08-21T03:53:07;5.35;;;2.75;;
47860;SDS011;33620;52.340;5.984;2023-08-21T03:55:33;9.63;;;2.90;;
47860;SDS011;33620;52.340;5.984;2023-08-21T03:57:58;4.38;;;2.70;;
47860;SDS011;33620;52.340;5.984;2023-08-21T04:00:24;8.95;;;2.92;;
47860;SDS011;33620;52.340;5.984;2023-08-21T04:02:49;7.85;;;2.88;;
47860;SDS011;33620;52.340;5.984;2023-08-21T04:05:15;8.25;;;2.63;;
47860;SDS011;33620;52.340;5.984;2023-08-21T04:07:41;7.75;;;2.88;;
47860;SDS011;33620;52.340;5.984;2023-08-21T04:10:06;8.30;;;3.20;;
47860;SDS011;33620;52.340;5.984;2023-08-21T04:12:32;10.73;;;3.17;;
47860;SDS011;33620;52.340;5.984;2023-08-21T04:14:57;8.57;;;2.63;;
47860;SDS011;33620;52.340;5.984;2023-08-21T04:17:23;8.90;;;2.90;;
47860;SDS011;33620;52.340;5.984;2023-08-21T04:19:50;11.02;;;3.00;;
47860;SDS011;33620;52.340;5.984;2023-08-21T04:22:15;9.80;;;3.33;;
47860;SDS011;33620;52.340;5.984;2023-08-21T04:24:41;6.25;;;3.10;;
47860;SDS011;33620;52.340;5.984;2023-08-21T04:27:07;4.53;;;2.72;;
47860;SDS011;33620;52.340;5.984;2023-08-21T04:29:33;9.27;;;3.38;;
47860;SDS011;33620;52.340;5.984;2023-08-21T04:32:00;7.90;;;3.00;;
47860;SDS011;33620;52.340;5.984;2023-08-21T04:34:25;7.28;;;3.00;;
47860;SDS011;33620;52.340;5.984;2023-08-21T04:36:50;9.57;;;3.20;;
47860;SDS011;33620;52.340;5.984;2023-08-21T04:39:17;7.25;;;2.75;;
47860;SDS011;33620;52.340;5.984;2023-08-21T04:41:42;5.05;;;2.53;;
47860;SDS011;33620;52.340;5.984;2023-08-21T04:44:08;6.05;;;2.63;;
47860;SDS011;33620;52.340;5.984;2023-08-21T04:46:33;6.50;;;2.92;;
47860;SDS011;33620;52.340;5.984;2023-08-21T04:48:58;12.13;;;3.42;;
47860;SDS011;33620;52.340;5.984;2023-08-21T04:51:24;6.80;;;3.17;;
47860;SDS011;33620;52.340;5.984;2023-08-21T04:53:49;8.43;;;3.08;;
47860;SDS011;33620;52.340;5.984;2023-08-21T04:56:15;10.13;;;3.25;;
47860;SDS011;33620;52.340;5.984;2023-08-21T04:58:40;9.77;;;2.95;;
47860;SDS011;33620;52.340;5.984;2023-08-21T05:01:05;9.15;;;3.38;;
47860;SDS011;33620;52.340;5.984;2023-08-21T05:03:31;7.65;;;3.10;;
47860;SDS011;33620;52.340;5.984;2023-08-21T05:05:56;12.48;;;3.17;;
47860;SDS011;33620;52.340;5.984;2023-08-21T05:08:23;8.23;;;2.78;;
47860;SDS011;33620;52.340;5.984;2023-08-21T05:10:53;11.23;;;3.08;;
47860;SDS011;33620;52.340;5.984;2023-08-21T05:13:23;11.32;;;3.42;;
47860;SDS011;33620;52.340;5.984;2023-08-21T05:15:54;6.70;;;2.78;;
47860;SDS011;33620;52.340;5.984;2023-08-21T05:18:21;9.00;;;3.10;;
47860;SDS011;33620;52.340;5.984;2023-08-21T05:20:47;9.00;;;3.42;;
47860;SDS011;33620;52.340;5.984;2023-08-21T05:23:13;11.02;;;3.42;;
47860;SDS011;33620;52.340;5.984;2023-08-21T05:25:38;10.77;;;3.83;;
47860;SDS011;33620;52.340;5.984;2023-08-21T05:28:04;14.38;;;3.22;;
47860;SDS011;33620;52.340;5.984;2023-08-21T05:30:30;7.28;;;3.08;;
47860;SDS011;33620;52.340;5.984;2023-08-21T05:32:56;9.18;;;3.05;;
47860;SDS011;33620;52.340;5.984;2023-08-21T05:35:21;11.35;;;3.17;;
47860;SDS011;33620;52.340;5.984;2023-08-21T05:37:46;13.45;;;3.78;;
47860;SDS011;33620;52.340;5.984;2023-08-21T05:40:12;8.52;;;3.83;;
47860;SDS011;33620;52.340;5.984;2023-08-21T05:42:38;10.82;;;3.08;;
47860;SDS011;33620;52.340;5.984;2023-08-21T05:45:04;8.88;;;3.17;;
47860;SDS011;33620;52.340;5.984;2023-08-21T05:47:30;10.60;;;2.95;;
47860;SDS011;33620;52.340;5.984;2023-08-21T05:49:55;11.65;;;3.15;;
47860;SDS011;33620;52.340;5.984;2023-08-21T05:52:21;7.85;;;3.33;;
47860;SDS011;33620;52.340;5.984;2023-08-21T05:54:47;11.43;;;3.65;;
47860;SDS011;33620;52.340;5.984;2023-08-21T05:57:13;11.15;;;3.47;;
47860;SDS011;33620;52.340;5.984;2023-08-21T05:59:43;14.57;;;4.20;;
47860;SDS011;33620;52.340;5.984;2023-08-21T06:02:09;15.13;;;3.85;;
47860;SDS011;33620;52.340;5.984;2023-08-21T06:04:35;12.18;;;4.25;;
47860;SDS011;33620;52.340;5.984;2023-08-21T06:07:00;13.63;;;3.97;;
47860;SDS011;33620;52.340;5.984;2023-08-21T06:09:26;14.35;;;4.10;;
47860;SDS011;33620;52.340;5.984;2023-08-21T06:11:54;15.50;;;4.00;;
47860;SDS011;33620;52.340;5.984;2023-08-21T06:14:20;15.18;;;4.13;;
47860;SDS011;33620;52.340;5.984;2023-08-21T06:16:45;14.35;;;4.25;;
47860;SDS011;33620;52.340;5.984;2023-08-21T06:19:10;15.18;;;4.30;;
47860;SDS011;33620;52.340;5.984;2023-08-21T06:21:36;16.40;;;3.80;;
47860;SDS011;33620;52.340;5.984;2023-08-21T06:24:02;10.18;;;4.43;;
47860;SDS011;33620;52.340;5.984;2023-08-21T06:26:27;15.15;;;4.40;;
47860;SDS011;33620;52.340;5.984;2023-08-21T06:28:52;13.52;;;3.95;;
47860;SDS011;33620;52.340;5.984;2023-08-21T06:31:18;16.02;;;4.32;;
47860;SDS011;33620;52.340;5.984;2023-08-21T06:33:43;13.75;;;3.80;;
47860;SDS011;33620;52.340;5.984;2023-08-21T06:36:09;10.52;;;3.90;;
47860;SDS011;33620;52.340;5.984;2023-08-21T06:38:34;11.13;;;3.70;;
47860;SDS011;33620;52.340;5.984;2023-08-21T06:40:59;10.95;;;3.90;;
47860;SDS011;33620;52.340;5.984;2023-08-21T06:43:25;9.10;;;3.80;;
47860;SDS011;33620;52.340;5.984;2023-08-21T06:45:50;16.35;;;4.88;;
47860;SDS011;33620;52.340;5.984;2023-08-21T06:48:16;13.38;;;4.38;;
47860;SDS011;33620;52.340;5.984;2023-08-21T06:50:41;12.35;;;4.18;;
47860;SDS011;33620;52.340;5.984;2023-08-21T06:53:06;13.07;;;5.05;;
47860;SDS011;33620;52.340;5.984;2023-08-21T06:55:32;14.90;;;5.28;;
47860;SDS011;33620;52.340;5.984;2023-08-21T06:57:57;13.48;;;4.18;;
47860;SDS011;33620;52.340;5.984;2023-08-21T07:00:22;16.00;;;5.22;;
47860;SDS011;33620;52.340;5.984;2023-08-21T07:02:48;14.70;;;4.75;;
47860;SDS011;33620;52.340;5.984;2023-08-21T07:05:13;14.60;;;4.55;;
47860;SDS011;33620;52.340;5.984;2023-08-21T07:07:39;12.90;;;4.95;;
47860;SDS011;33620;52.340;5.984;2023-08-21T07:10:04;16.65;;;5.07;;
47860;SDS011;33620;52.340;5.984;2023-08-21T07:12:30;15.32;;;4.60;;
47860;SDS011;33620;52.340;5.984;2023-08-21T07:14:55;13.75;;;4.95;;
47860;SDS011;33620;52.340;5.984;2023-08-21T07:17:21;18.05;;;4.50;;
47860;SDS011;33620;52.340;5.984;2023-08-21T07:19:46;14.00;;;5.10;;
47860;SDS011;33620;52.340;5.984;2023-08-21T07:22:14;13.38;;;4.38;;
47860;SDS011;33620;52.340;5.984;2023-08-21T07:24:39;14.98;;;4.85;;
47860;SDS011;33620;52.340;5.984;2023-08-21T07:27:04;17.02;;;4.90;;
47860;SDS011;33620;52.340;5.984;2023-08-21T07:29:30;14.07;;;5.15;;
47860;SDS011;33620;52.340;5.984;2023-08-21T07:31:55;12.02;;;4.45;;
47860;SDS011;33620;52.340;5.984;2023-08-21T07:34:21;14.63;;;5.03;;
47860;SDS011;33620;52.340;5.984;2023-08-21T07:36:46;18.45;;;5.68;;
47860;SDS011;33620;52.340;5.984;2023-08-21T07:39:11;14.77;;;5.57;;
47860;SDS011;33620;52.340;5.984;2023-08-21T07:41:37;17.85;;;5.50;;
47860;SDS011;33620;52.340;5.984;2023-08-21T07:44:02;18.27;;;6.20;;
47860;SDS011;33620;52.340;5.984;2023-08-21T07:46:28;14.88;;;5.60;;
47860;SDS011;33620;52.340;5.984;2023-08-21T07:48:53;17.23;;;5.40;;
47860;SDS011;33620;52.340;5.984;2023-08-21T07:51:19;14.07;;;5.38;;
47860;SDS011;33620;52.340;5.984;2023-08-21T07:53:45;18.27;;;6.20;;
47860;SDS011;33620;52.340;5.984;2023-08-21T07:56:10;13.93;;;4.80;;
47860;SDS011;33620;52.340;5.984;2023-08-21T07:58:36;19.27;;;6.22;;
47860;SDS011;33620;52.340;5.984;2023-08-21T08:01:02;17.02;;;5.38;;
47860;SDS011;33620;52.340;5.984;2023-08-21T08:03:29;16.73;;;5.00;;
47860;SDS011;33620;52.340;5.984;2023-08-21T08:05:55;18.33;;;5.43;;
47860;SDS011;33620;52.340;5.984;2023-08-21T08:08:20;14.50;;;5.50;;
47860;SDS011;33620;52.340;5.984;2023-08-21T08:10:46;11.93;;;4.80;;
47860;SDS011;33620;52.340;5.984;2023-08-21T08:13:11;15.00;;;4.50;;
47860;SDS011;33620;52.340;5.984;2023-08-21T08:15:37;14.00;;;4.70;;
47860;SDS011;33620;52.340;5.984;2023-08-21T08:18:03;17.80;;;5.53;;
47860;SDS011;33620;52.340;5.984;2023-08-21T08:20:29;19.02;;;5.43;;
47860;SDS011;33620;52.340;5.984;2023-08-21T08:22:55;13.57;;;5.13;;
47860;SDS011;33620;52.340;5.984;2023-08-21T08:25:21;14.13;;;4.28;;
47860;SDS011;33620;52.340;5.984;2023-08-21T08:27:46;14.38;;;4.97;;
47860;SDS011;33620;52.340;5.984;2023-08-21T08:30:12;15.48;;;4.60;;
47860;SDS011;33620;52.340;5.984;2023-08-21T08:32:37;16.38;;;4.63;;
47860;SDS011;33620;52.340;5.984;2023-08-21T08:35:05;13.10;;;4.18;;
47860;SDS011;33620;52.340;5.984;2023-08-21T08:37:32;11.98;;;3.47;;
47860;SDS011;33620;52.340;5.984;2023-08-21T08:39:57;12.38;;;3.88;;
47860;SDS011;33620;52.340;5.984;2023-08-21T08:42:23;17.27;;;3.72;;
47860;SDS011;33620;52.340;5.984;2023-08-21T08:44:48;11.32;;;3.88;;
47860;SDS011;33620;52.340;5.984;2023-08-21T08:47:14;14.43;;;5.03;;
47860;SDS011;33620;52.340;5.984;2023-08-21T08:49:42;14.07;;;4.80;;
47860;SDS011;33620;52.340;5.984;2023-08-21T08:52:07;14.70;;;4.75;;
47860;SDS011;33620;52.340;5.984;2023-08-21T08:54:33;12.80;;;4.28;;
47860;SDS011;33620;52.340;5.984;2023-08-21T08:57:00;12.35;;;4.40;;
47860;SDS011;33620;52.340;5.984;2023-08-21T08:59:29;11.68;;;3.85;;
47860;SDS011;33620;52.340;5.984;2023-08-21T09:01:55;17.05;;;4.38;;
47860;SDS011;33620;52.340;5.984;2023-08-21T09:04:21;12.20;;;3.97;;
47860;SDS011;33620;52.340;5.984;2023-08-21T09:06:46;15.43;;;3.90;;
47860;SDS011;33620;52.340;5.984;2023-08-21T09:09:11;18.88;;;5.13;;
47860;SDS011;33620;52.340;5.984;2023-08-21T09:11:42;14.10;;;4.10;;
47860;SDS011;33620;52.340;5.984;2023-08-21T09:14:08;16.27;;;4.63;;
47860;SDS011;33620;52.340;5.984;2023-08-21T09:16:35;18.45;;;5.10;;
47860;SDS011;33620;52.340;5.984;2023-08-21T09:19:01;13.90;;;5.45;;
47860;SDS011;33620;52.340;5.984;2023-08-21T09:21:27;15.07;;;3.95;;
47860;SDS011;33620;52.340;5.984;2023-08-21T09:23:58;9.73;;;3.92;;
47860;SDS011;33620;52.340;5.984;2023-08-21T09:26:24;13.13;;;3.90;;
47860;SDS011;33620;52.340;5.984;2023-08-21T09:28:51;12.75;;;4.53;;
47860;SDS011;33620;52.340;5.984;2023-08-21T09:31:25;12.63;;;3.78;;
47860;SDS011;33620;52.340;5.984;2023-08-21T09:33:55;14.77;;;4.93;;
47860;SDS011;33620;52.340;5.984;2023-08-21T09:36:23;14.23;;;3.90;;
47860;SDS011;33620;52.340;5.984;2023-08-21T09:38:50;14.82;;;4.45;;
47860;SDS011;33620;52.340;5.984;2023-08-21T09:41:18;14.65;;;3.95;;
47860;SDS011;33620;52.340;5.984;2023-08-21T09:43:47;11.50;;;3.15;;
47860;SDS011;33620;52.340;5.984;2023-08-21T09:46:17;9.45;;;3.08;;
47860;SDS011;33620;52.340;5.984;2023-08-21T09:48:48;12.10;;;3.40;;
47860;SDS011;33620;52.340;5.984;2023-08-21T09:51:15;12.98;;;3.38;;
47860;SDS011;33620;52.340;5.984;2023-08-21T09:53:40;11.00;;;3.50;;
47860;SDS011;33620;52.340;5.984;2023-08-21T09:56:06;18.33;;;3.38;;
47860;SDS011;33620;52.340;5.984;2023-08-21T09:58:33;10.13;;;3.13;;
47860;SDS011;33620;52.340;5.984;2023-08-21T10:01:06;8.70;;;2.80;;
47860;SDS011;33620;52.340;5.984;2023-08-21T10:03:39;9.25;;;2.45;;
47860;SDS011;33620;52.340;5.984;2023-08-21T10:06:06;10.05;;;2.92;;
47860;SDS011;33620;52.340;5.984;2023-08-21T10:08:36;7.47;;;2.15;;
47860;SDS011;33620;52.340;5.984;2023-08-21T10:11:09;9.23;;;2.95;;
47860;SDS011;33620;52.340;5.984;2023-08-21T10:13:34;9.32;;;2.63;;
47860;SDS011;33620;52.340;5.984;2023-08-21T10:16:02;11.05;;;2.83;;
47860;SDS011;33620;52.340;5.984;2023-08-21T10:18:31;11.48;;;2.72;;
47860;SDS011;33620;52.340;5.984;2023-08-21T10:23:47;11.48;;;2.63;;
47860;SDS011;33620;52.340;5.984;2023-08-21T10:26:13;7.38;;;2.67;;
47860;SDS011;33620;52.340;5.984;2023-08-21T10:28:56;5.22;;;2.17;;
47860;SDS011;33620;52.340;5.984;2023-08-21T10:31:39;6.63;;;2.25;;
47860;SDS011;33620;52.340;5.984;2023-08-21T10:34:08;7.00;;;2.20;;
47860;SDS011;33620;52.340;5.984;2023-08-21T10:39:12;8.10;;;2.40;;
47860;SDS011;33620;52.340;5.984;2023-08-21T10:41:38;6.35;;;2.17;;
47860;SDS011;33620;52.340;5.984;2023-08-21T10:44:05;8.35;;;2.35;;
47860;SDS011;33620;52.340;5.984;2023-08-21T10:46:49;7.70;;;2.10;;
47860;SDS011;33620;52.340;5.984;2023-08-21T10:49:14;7.80;;;2.20;;
47860;SDS011;33620;52.340;5.984;2023-08-21T10:51:40;7.05;;;2.67;;
47860;SDS011;33620;52.340;5.984;2023-08-21T10:54:11;6.30;;;2.47;;
47860;SDS011;33620;52.340;5.984;2023-08-21T10:56:37;10.82;;;2.40;;
47860;SDS011;33620;52.340;5.984;2023-08-21T10:59:03;7.70;;;2.08;;
47860;SDS011;33620;52.340;5.984;2023-08-21T11:01:41;6.03;;;2.15;;
47860;SDS011;33620;52.340;5.984;2023-08-21T11:04:09;7.05;;;1.70;;
47860;SDS011;33620;52.340;5.984;2023-08-21T11:06:35;6.25;;;1.45;;
47860;SDS011;33620;52.340;5.984;2023-08-21T11:09:02;3.00;;;1.23;;
47860;SDS011;33620;52.340;5.984;2023-08-21T11:11:28;4.30;;;1.73;;
47860;SDS011;33620;52.340;5.984;2023-08-21T11:13:54;5.47;;;2.20;;
47860;SDS011;33620;52.340;5.984;2023-08-21T11:16:19;7.18;;;2.22;;
47860;SDS011;33620;52.340;5.984;2023-08-21T11:18:45;3.72;;;1.80;;
47860;SDS011;33620;52.340;5.984;2023-08-21T11:21:11;6.60;;;1.77;;
47860;SDS011;33620;52.340;5.984;2023-08-21T11:23:40;4.78;;;1.63;;
47860;SDS011;33620;52.340;5.984;2023-08-21T11:26:10;5.88;;;1.90;;
47860;SDS011;33620;52.340;5.984;2023-08-21T11:28:36;4.88;;;1.65;;
47860;SDS011;33620;52.340;5.984;2023-08-21T11:31:03;7.05;;;2.10;;
47860;SDS011;33620;52.340;5.984;2023-08-21T11:33:30;6.80;;;2.08;;
47860;SDS011;33620;52.340;5.984;2023-08-21T11:35:56;5.95;;;1.67;;
47860;SDS011;33620;52.340;5.984;2023-08-21T11:38:24;3.38;;;1.70;;
47860;SDS011;33620;52.340;5.984;2023-08-21T11:43:21;6.97;;;2.03;;
47860;SDS011;33620;52.340;5.984;2023-08-21T11:45:47;6.55;;;1.75;;
47860;SDS011;33620;52.340;5.984;2023-08-21T11:48:13;8.02;;;1.80;;
47860;SDS011;33620;52.340;5.984;2023-08-21T11:50:39;5.32;;;2.00;;
47860;SDS011;33620;52.340;5.984;2023-08-21T11:53:04;4.07;;;1.60;;
47860;SDS011;33620;52.340;5.984;2023-08-21T11:55:30;7.20;;;2.05;;
47860;SDS011;33620;52.340;5.984;2023-08-21T11:57:56;6.72;;;1.95;;
47860;SDS011;33620;52.340;5.984;2023-08-21T12:00:28;5.88;;;1.85;;
47860;SDS011;33620;52.340;5.984;2023-08-21T12:02:55;6.65;;;2.42;;
47860;SDS011;33620;52.340;5.984;2023-08-21T12:05:23;4.97;;;1.45;;
47860;SDS011;33620;52.340;5.984;2023-08-21T12:07:48;5.80;;;1.88;;
47860;SDS011;33620;52.340;5.984;2023-08-21T12:10:14;8.52;;;1.55;;
47860;SDS011;33620;52.340;5.984;2023-08-21T12:12:46;5.28;;;1.70;;
47860;SDS011;33620;52.340;5.984;2023-08-21T12:15:11;5.50;;;1.52;;
47860;SDS011;33620;52.340;5.984;2023-08-21T12:17:37;6.65;;;2.08;;
47860;SDS011;33620;52.340;5.984;2023-08-21T12:20:02;7.57;;;2.22;;
47860;SDS011;33620;52.340;5.984;2023-08-21T12:22:35;8.38;;;2.05;;
47860;SDS011;33620;52.340;5.984;2023-08-21T12:25:01;10.35;;;2.35;;
47860;SDS011;33620;52.340;5.984;2023-08-21T12:27:26;7.20;;;2.03;;
47860;SDS011;33620;52.340;5.984;2023-08-21T12:29:52;7.25;;;2.45;;
47860;SDS011;33620;52.340;5.984;2023-08-21T12:32:17;8.82;;;3.10;;
47860;SDS011;33620;52.340;5.984;2023-08-21T12:34:42;6.30;;;2.15;;
47860;SDS011;33620;52.340;5.984;2023-08-21T12:37:08;8.63;;;2.08;;
47860;SDS011;33620;52.340;5.984;2023-08-21T12:39:34;9.07;;;2.40;;
47860;SDS011;33620;52.340;5.984;2023-08-21T12:41:59;5.75;;;2.17;;
47860;SDS011;33620;52.340;5.984;2023-08-21T12:44:24;8.10;;;2.65;;
47860;SDS011;33620;52.340;5.984;2023-08-21T12:46:50;7.88;;;2.20;;
47860;SDS011;33620;52.340;5.984;2023-08-21T12:49:16;6.18;;;1.95;;
47860;SDS011;33620;52.340;5.984;2023-08-21T12:51:41;8.23;;;1.90;;
47860;SDS011;33620;52.340;5.984;2023-08-21T12:54:07;6.43;;;2.00;;
47860;SDS011;33620;52.340;5.984;2023-08-21T12:56:34;6.03;;;1.90;;
47860;SDS011;33620;52.340;5.984;2023-08-21T12:58:59;9.00;;;2.38;;
47860;SDS011;33620;52.340;5.984;2023-08-21T13:01:25;6.82;;;1.92;;
47860;SDS011;33620;52.340;5.984;2023-08-21T13:03:51;5.45;;;1.95;;
47860;SDS011;33620;52.340;5.984;2023-08-21T13:06:16;5.30;;;2.08;;
47860;SDS011;33620;52.340;5.984;2023-08-21T13:08:41;7.05;;;1.77;;
47860;SDS011;33620;52.340;5.984;2023-08-21T13:11:08;3.55;;;1.33;;
47860;SDS011;33620;52.340;5.984;2023-08-21T13:13:34;5.35;;;1.48;;
47860;SDS011;33620;52.340;5.984;2023-08-21T13:16:00;2.47;;;1.27;;
47860;SDS011;33620;52.340;5.984;2023-08-21T13:18:26;5.13;;;1.40;;
47860;SDS011;33620;52.340;5.984;2023-08-21T13:20:51;6.90;;;1.52;;
47860;SDS011;33620;52.340;5.984;2023-08-21T13:23:17;5.25;;;1.83;;
47860;SDS011;33620;52.340;5.984;2023-08-21T13:25:42;6.78;;;1.35;;
47860;SDS011;33620;52.340;5.984;2023-08-21T13:28:08;4.63;;;1.20;;
47860;SDS011;33620;52.340;5.984;2023-08-21T13:30:33;4.80;;;1.48;;
47860;SDS011;33620;52.340;5.984;2023-08-21T13:32:59;6.45;;;1.48;;
47860;SDS011;33620;52.340;5.984;2023-08-21T13:35:24;5.63;;;1.38;;
47860;SDS011;33620;52.340;5.984;2023-08-21T13:37:50;5.07;;;1.35;;
47860;SDS011;33620;52.340;5.984;2023-08-21T13:40:15;3.75;;;1.00;;
47860;SDS011;33620;52.340;5.984;2023-08-21T13:42:42;6.63;;;1.40;;
47860;SDS011;33620;52.340;5.984;2023-08-21T13:45:15;5.20;;;1.63;;
47860;SDS011;33620;52.340;5.984;2023-08-21T13:47:43;3.88;;;1.45;;
47860;SDS011;33620;52.340;5.984;2023-08-21T13:50:10;6.53;;;1.38;;
47860;SDS011;33620;52.340;5.984;2023-08-21T13:52:36;4.20;;;1.17;;
47860;SDS011;33620;52.340;5.984;2023-08-21T13:55:03;3.65;;;1.20;;
47860;SDS011;33620;52.340;5.984;2023-08-21T13:57:29;2.97;;;1.00;;
47860;SDS011;33620;52.340;5.984;2023-08-21T13:59:55;6.32;;;1.35;;
47860;SDS011;33620;52.340;5.984;2023-08-21T14:02:20;3.03;;;1.15;;
47860;SDS011;33620;52.340;5.984;2023-08-21T14:04:48;7.60;;;1.60;;
47860;SDS011;33620;52.340;5.984;2023-08-21T14:07:13;3.65;;;1.40;;
47860;SDS011;33620;52.340;5.984;2023-08-21T14:09:38;7.13;;;1.88;;
47860;SDS011;33620;52.340;5.984;2023-08-21T14:12:04;2.53;;;1.10;;
47860;SDS011;33620;52.340;5.984;2023-08-21T14:14:30;4.40;;;1.30;;
47860;SDS011;33620;52.340;5.984;2023-08-21T14:16:55;7.05;;;1.63;;
47860;SDS011;33620;52.340;5.984;2023-08-21T14:19:20;2.58;;;1.30;;
47860;SDS011;33620;52.340;5.984;2023-08-21T14:21:46;6.88;;;1.73;;
47860;SDS011;33620;52.340;5.984;2023-08-21T14:24:14;3.80;;;1.30;;
47860;SDS011;33620;52.340;5.984;2023-08-21T14:26:39;3.17;;;1.42;;
47860;SDS011;33620;52.340;5.984;2023-08-21T14:29:05;3.58;;;1.40;;
47860;SDS011;33620;52.340;5.984;2023-08-21T14:31:31;3.42;;;1.13;;
47860;SDS011;33620;52.340;5.984;2023-08-21T14:33:56;5.03;;;1.33;;
47860;SDS011;33620;52.340;5.984;2023-08-21T14:36:22;3.45;;;1.33;;
47860;SDS011;33620;52.340;5.984;2023-08-21T14:38:48;4.07;;;1.42;;
47860;SDS011;33620;52.340;5.984;2023-08-21T14:41:13;2.70;;;1.42;;
47860;SDS011;33620;52.340;5.984;2023-08-21T14:43:39;4.18;;;1.40;;
47860;SDS011;33620;52.340;5.984;2023-08-21T14:46:04;7.20;;;1.60;;
47860;SDS011;33620;52.340;5.984;2023-08-21T14:48:30;7.40;;;1.20;;
47860;SDS011;33620;52.340;5.984;2023-08-21T14:50:55;4.60;;;1.60;;
47860;SDS011;33620;52.340;5.984;2023-08-21T14:53:20;5.22;;;1.40;;